sensor_id;sensor_type;location;lat;lon;timestamp;P1;durP1;ratioP1;P2;durP2;ratioP2
32292;SDS011;43233;48.608;8.838;2023-07-22T00:02:23;3.40;;;2.83;;
32292;SDS011;43233;48.608;8.838;2023-07-22T00:04:49;3.47;;;3.17;;
32292;SDS011;43233;48.608;8.838;2023-07-22T00:07:15;4.13;;;2.50;;
32292;SDS011;43233;48.608;8.838;2023-07-22T00:09:41;3.17;;;2.97;;
32292;SDS011;43233;48.608;8.838;2023-07-22T00:12:08;5.13;;;2.90;;
32292;SDS011;43233;48.608;8.838;2023-07-22T00:14:37;3.20;;;2.90;;
32292;SDS011;43233;48.608;8.838;2023-07-22T00:17:04;3.60;;;2.97;;
32292;SDS011;43233;48.608;8.838;2023-07-22T00:19:30;5.90;;;2.70;;
32292;SDS011;43233;48.608;8.838;2023-07-22T00:21:56;5.00;;;3.67;;
32292;SDS011;43233;48.608;8.838;2023-07-22T00:24:21;4.10;;;3.50;;
32292;SDS011;43233;48.608;8.838;2023-07-22T00:26:47;3.17;;;2.97;;
32292;SDS011;43233;48.608;8.838;2023-07-22T00:29:14;3.57;;;3.03;;
32292;SDS011;43233;48.608;8.838;2023-07-22T00:31:40;3.20;;;3.00;;
32292;SDS011;43233;48.608;8.838;2023-07-22T00:34:06;4.20;;;3.33;;
32292;SDS011;43233;48.608;8.838;2023-07-22T00:36:32;5.53;;;4.43;;
32292;SDS011;43233;48.608;8.838;2023-07-22T00:38:57;3.37;;;3.17;;
32292;SDS011;43233;48.608;8.838;2023-07-22T00:41:23;4.07;;;3.43;;
32292;SDS011;43233;48.608;8.838;2023-07-22T00:43:49;3.03;;;2.83;;
32292;SDS011;43233;48.608;8.838;2023-07-22T00:46:14;3.40;;;3.13;;
32292;SDS011;43233;48.608;8.838;2023-07-22T00:48:40;7.43;;;3.00;;
32292;SDS011;43233;48.608;8.838;2023-07-22T00:51:06;6.50;;;3.03;;
32292;SDS011;43233;48.608;8.838;2023-07-22T00:53:32;2.87;;;2.67;;
32292;SDS011;43233;48.608;8.838;2023-07-22T00:55:58;4.30;;;3.10;;
32292;SDS011;43233;48.608;8.838;2023-07-22T00:58:23;3.43;;;3.13;;
32292;SDS011;43233;48.608;8.838;2023-07-22T01:00:49;3.67;;;3.37;;
32292;SDS011;43233;48.608;8.838;2023-07-22T01:03:15;3.10;;;2.90;;
32292;SDS011;43233;48.608;8.838;2023-07-22T01:05:40;3.23;;;3.03;;
32292;SDS011;43233;48.608;8.838;2023-07-22T01:08:07;2.80;;;2.60;;
32292;SDS011;43233;48.608;8.838;2023-07-22T01:10:32;2.90;;;2.60;;
32292;SDS011;43233;48.608;8.838;2023-07-22T01:12:58;5.23;;;2.87;;
32292;SDS011;43233;48.608;8.838;2023-07-22T01:15:24;3.40;;;3.07;;
32292;SDS011;43233;48.608;8.838;2023-07-22T01:17:50;7.83;;;2.80;;
32292;SDS011;43233;48.608;8.838;2023-07-22T01:20:16;5.17;;;3.57;;
32292;SDS011;43233;48.608;8.838;2023-07-22T01:22:49;4.73;;;3.20;;
32292;SDS011;43233;48.608;8.838;2023-07-22T01:25:16;6.47;;;2.87;;
32292;SDS011;43233;48.608;8.838;2023-07-22T01:27:43;3.23;;;2.70;;
32292;SDS011;43233;48.608;8.838;2023-07-22T01:30:09;3.60;;;3.17;;
32292;SDS011;43233;48.608;8.838;2023-07-22T01:32:35;11.63;;;3.83;;
32292;SDS011;43233;48.608;8.838;2023-07-22T01:35:01;5.47;;;3.47;;
32292;SDS011;43233;48.608;8.838;2023-07-22T01:37:26;3.40;;;3.20;;
32292;SDS011;43233;48.608;8.838;2023-07-22T01:39:52;4.50;;;3.50;;
32292;SDS011;43233;48.608;8.838;2023-07-22T01:42:18;3.50;;;3.20;;
32292;SDS011;43233;48.608;8.838;2023-07-22T01:44:43;3.87;;;3.27;;
32292;SDS011;43233;48.608;8.838;2023-07-22T01:47:09;3.87;;;3.43;;
32292;SDS011;43233;48.608;8.838;2023-07-22T01:49:35;5.30;;;3.87;;
32292;SDS011;43233;48.608;8.838;2023-07-22T01:52:00;5.50;;;4.00;;
32292;SDS011;43233;48.608;8.838;2023-07-22T01:54:26;6.43;;;3.60;;
32292;SDS011;43233;48.608;8.838;2023-07-22T01:56:52;4.67;;;3.93;;
32292;SDS011;43233;48.608;8.838;2023-07-22T01:59:17;9.40;;;3.73;;
32292;SDS011;43233;48.608;8.838;2023-07-22T02:01:43;5.93;;;3.43;;
32292;SDS011;43233;48.608;8.838;2023-07-22T02:04:09;4.93;;;3.60;;
32292;SDS011;43233;48.608;8.838;2023-07-22T02:06:35;3.60;;;3.10;;
32292;SDS011;43233;48.608;8.838;2023-07-22T02:09:01;5.80;;;3.70;;
32292;SDS011;43233;48.608;8.838;2023-07-22T02:11:33;5.23;;;4.67;;
32292;SDS011;43233;48.608;8.838;2023-07-22T02:14:00;7.57;;;4.13;;
32292;SDS011;43233;48.608;8.838;2023-07-22T02:16:25;4.63;;;3.00;;
32292;SDS011;43233;48.608;8.838;2023-07-22T02:18:51;5.93;;;3.20;;
32292;SDS011;43233;48.608;8.838;2023-07-22T02:21:17;5.73;;;4.40;;
32292;SDS011;43233;48.608;8.838;2023-07-22T02:23:42;4.60;;;3.73;;
32292;SDS011;43233;48.608;8.838;2023-07-22T02:26:08;5.80;;;3.30;;
32292;SDS011;43233;48.608;8.838;2023-07-22T02:28:34;3.83;;;3.53;;
32292;SDS011;43233;48.608;8.838;2023-07-22T02:31:00;5.87;;;3.70;;
32292;SDS011;43233;48.608;8.838;2023-07-22T02:33:32;5.47;;;3.53;;
32292;SDS011;43233;48.608;8.838;2023-07-22T02:35:58;6.23;;;3.50;;
32292;SDS011;43233;48.608;8.838;2023-07-22T02:38:24;4.20;;;3.70;;
32292;SDS011;43233;48.608;8.838;2023-07-22T02:40:49;5.73;;;4.17;;
32292;SDS011;43233;48.608;8.838;2023-07-22T02:43:15;5.60;;;3.67;;
32292;SDS011;43233;48.608;8.838;2023-07-22T02:45:40;4.03;;;3.60;;
32292;SDS011;43233;48.608;8.838;2023-07-22T02:48:06;7.50;;;4.40;;
32292;SDS011;43233;48.608;8.838;2023-07-22T02:50:32;6.97;;;3.80;;
32292;SDS011;43233;48.608;8.838;2023-07-22T02:52:57;5.27;;;3.40;;
32292;SDS011;43233;48.608;8.838;2023-07-22T02:55:23;7.93;;;3.60;;
32292;SDS011;43233;48.608;8.838;2023-07-22T02:57:49;5.07;;;3.87;;
32292;SDS011;43233;48.608;8.838;2023-07-22T03:00:15;3.63;;;3.30;;
32292;SDS011;43233;48.608;8.838;2023-07-22T03:02:55;3.67;;;3.37;;
32292;SDS011;43233;48.608;8.838;2023-07-22T03:05:29;7.60;;;3.97;;
32292;SDS011;43233;48.608;8.838;2023-07-22T03:07:56;9.03;;;3.40;;
32292;SDS011;43233;48.608;8.838;2023-07-22T03:10:23;5.63;;;4.60;;
32292;SDS011;43233;48.608;8.838;2023-07-22T03:12:54;3.90;;;3.60;;
32292;SDS011;43233;48.608;8.838;2023-07-22T03:15:21;4.37;;;3.97;;
32292;SDS011;43233;48.608;8.838;2023-07-22T03:17:47;10.20;;;3.33;;
32292;SDS011;43233;48.608;8.838;2023-07-22T03:20:14;5.80;;;4.23;;
32292;SDS011;43233;48.608;8.838;2023-07-22T03:22:41;4.40;;;4.07;;
32292;SDS011;43233;48.608;8.838;2023-07-22T03:25:10;5.80;;;4.23;;
32292;SDS011;43233;48.608;8.838;2023-07-22T03:27:37;4.13;;;3.73;;
32292;SDS011;43233;48.608;8.838;2023-07-22T03:30:03;16.03;;;3.73;;
32292;SDS011;43233;48.608;8.838;2023-07-22T03:32:32;4.40;;;4.00;;
32292;SDS011;43233;48.608;8.838;2023-07-22T03:34:58;7.60;;;4.10;;
32292;SDS011;43233;48.608;8.838;2023-07-22T03:37:24;3.90;;;3.50;;
32292;SDS011;43233;48.608;8.838;2023-07-22T03:39:50;3.73;;;3.37;;
32292;SDS011;43233;48.608;8.838;2023-07-22T03:42:16;4.90;;;4.10;;
32292;SDS011;43233;48.608;8.838;2023-07-22T03:44:41;13.10;;;4.20;;
32292;SDS011;43233;48.608;8.838;2023-07-22T03:47:07;4.13;;;3.73;;
32292;SDS011;43233;48.608;8.838;2023-07-22T03:49:32;3.40;;;3.10;;
32292;SDS011;43233;48.608;8.838;2023-07-22T03:51:58;4.60;;;3.73;;
32292;SDS011;43233;48.608;8.838;2023-07-22T03:54:24;4.27;;;3.30;;
32292;SDS011;43233;48.608;8.838;2023-07-22T03:56:50;4.67;;;3.77;;
32292;SDS011;43233;48.608;8.838;2023-07-22T03:59:16;4.20;;;3.80;;
32292;SDS011;43233;48.608;8.838;2023-07-22T04:01:41;3.37;;;3.07;;
32292;SDS011;43233;48.608;8.838;2023-07-22T04:04:08;4.60;;;3.80;;
32292;SDS011;43233;48.608;8.838;2023-07-22T04:06:33;3.37;;;3.07;;
32292;SDS011;43233;48.608;8.838;2023-07-22T04:08:59;4.30;;;3.90;;
32292;SDS011;43233;48.608;8.838;2023-07-22T04:11:25;4.23;;;3.10;;
32292;SDS011;43233;48.608;8.838;2023-07-22T04:13:52;3.73;;;3.40;;
32292;SDS011;43233;48.608;8.838;2023-07-22T04:16:18;3.20;;;2.90;;
32292;SDS011;43233;48.608;8.838;2023-07-22T04:18:43;3.70;;;3.10;;
32292;SDS011;43233;48.608;8.838;2023-07-22T04:21:09;3.60;;;3.17;;
32292;SDS011;43233;48.608;8.838;2023-07-22T04:23:34;4.17;;;3.23;;
32292;SDS011;43233;48.608;8.838;2023-07-22T04:26:01;4.13;;;3.70;;
32292;SDS011;43233;48.608;8.838;2023-07-22T04:28:30;4.13;;;3.80;;
32292;SDS011;43233;48.608;8.838;2023-07-22T04:30:56;4.17;;;3.77;;
32292;SDS011;43233;48.608;8.838;2023-07-22T04:33:24;3.53;;;3.30;;
32292;SDS011;43233;48.608;8.838;2023-07-22T04:35:52;3.90;;;3.47;;
32292;SDS011;43233;48.608;8.838;2023-07-22T04:38:19;3.90;;;3.50;;
32292;SDS011;43233;48.608;8.838;2023-07-22T04:40:47;4.17;;;3.77;;
32292;SDS011;43233;48.608;8.838;2023-07-22T04:43:13;4.60;;;4.20;;
32292;SDS011;43233;48.608;8.838;2023-07-22T04:45:39;4.23;;;3.60;;
32292;SDS011;43233;48.608;8.838;2023-07-22T04:48:05;5.70;;;5.07;;
32292;SDS011;43233;48.608;8.838;2023-07-22T04:50:31;5.90;;;3.83;;
32292;SDS011;43233;48.608;8.838;2023-07-22T04:52:57;3.43;;;3.13;;
32292;SDS011;43233;48.608;8.838;2023-07-22T04:55:23;4.30;;;3.53;;
32292;SDS011;43233;48.608;8.838;2023-07-22T04:57:48;3.73;;;3.40;;
32292;SDS011;43233;48.608;8.838;2023-07-22T05:00:16;3.80;;;3.50;;
32292;SDS011;43233;48.608;8.838;2023-07-22T05:02:42;10.30;;;3.47;;
32292;SDS011;43233;48.608;8.838;2023-07-22T05:05:15;7.23;;;3.37;;
32292;SDS011;43233;48.608;8.838;2023-07-22T05:07:41;3.13;;;2.93;;
32292;SDS011;43233;48.608;8.838;2023-07-22T05:10:08;4.43;;;4.00;;
32292;SDS011;43233;48.608;8.838;2023-07-22T05:12:37;5.47;;;3.87;;
32292;SDS011;43233;48.608;8.838;2023-07-22T05:15:03;6.00;;;3.87;;
32292;SDS011;43233;48.608;8.838;2023-07-22T05:17:30;3.43;;;3.13;;
32292;SDS011;43233;48.608;8.838;2023-07-22T05:19:56;5.20;;;3.60;;
32292;SDS011;43233;48.608;8.838;2023-07-22T05:22:22;4.00;;;3.60;;
32292;SDS011;43233;48.608;8.838;2023-07-22T05:24:48;5.33;;;3.20;;
32292;SDS011;43233;48.608;8.838;2023-07-22T05:27:14;3.10;;;2.90;;
32292;SDS011;43233;48.608;8.838;2023-07-22T05:29:40;5.50;;;3.50;;
32292;SDS011;43233;48.608;8.838;2023-07-22T05:32:06;4.17;;;2.90;;
32292;SDS011;43233;48.608;8.838;2023-07-22T05:34:32;7.50;;;3.47;;
32292;SDS011;43233;48.608;8.838;2023-07-22T05:36:57;4.07;;;3.70;;
32292;SDS011;43233;48.608;8.838;2023-07-22T05:39:23;3.50;;;3.20;;
32292;SDS011;43233;48.608;8.838;2023-07-22T05:41:50;4.60;;;3.23;;
32292;SDS011;43233;48.608;8.838;2023-07-22T05:44:16;4.27;;;3.50;;
32292;SDS011;43233;48.608;8.838;2023-07-22T05:46:41;3.03;;;2.73;;
32292;SDS011;43233;48.608;8.838;2023-07-22T05:49:07;5.40;;;3.10;;
32292;SDS011;43233;48.608;8.838;2023-07-22T05:51:33;4.67;;;3.57;;
32292;SDS011;43233;48.608;8.838;2023-07-22T05:53:59;3.90;;;3.57;;
32292;SDS011;43233;48.608;8.838;2023-07-22T05:56:25;6.80;;;3.40;;
32292;SDS011;43233;48.608;8.838;2023-07-22T05:58:51;4.17;;;3.70;;
32292;SDS011;43233;48.608;8.838;2023-07-22T06:01:16;3.93;;;3.57;;
32292;SDS011;43233;48.608;8.838;2023-07-22T06:03:42;4.17;;;3.80;;
32292;SDS011;43233;48.608;8.838;2023-07-22T06:06:09;3.80;;;3.50;;
32292;SDS011;43233;48.608;8.838;2023-07-22T06:08:35;6.40;;;3.60;;
32292;SDS011;43233;48.608;8.838;2023-07-22T06:11:01;7.40;;;3.70;;
32292;SDS011;43233;48.608;8.838;2023-07-22T06:13:27;4.07;;;3.70;;
32292;SDS011;43233;48.608;8.838;2023-07-22T06:15:52;4.03;;;3.63;;
32292;SDS011;43233;48.608;8.838;2023-07-22T06:18:18;3.67;;;3.33;;
32292;SDS011;43233;48.608;8.838;2023-07-22T06:20:44;4.10;;;3.70;;
32292;SDS011;43233;48.608;8.838;2023-07-22T06:23:10;4.60;;;3.90;;
32292;SDS011;43233;48.608;8.838;2023-07-22T06:25:36;5.73;;;4.07;;
32292;SDS011;43233;48.608;8.838;2023-07-22T06:28:02;5.50;;;3.47;;
32292;SDS011;43233;48.608;8.838;2023-07-22T06:30:27;8.43;;;3.70;;
32292;SDS011;43233;48.608;8.838;2023-07-22T06:32:53;6.53;;;3.73;;
32292;SDS011;43233;48.608;8.838;2023-07-22T06:35:19;5.23;;;3.80;;
32292;SDS011;43233;48.608;8.838;2023-07-22T06:37:45;4.67;;;3.10;;
32292;SDS011;43233;48.608;8.838;2023-07-22T06:40:11;5.47;;;3.90;;
32292;SDS011;43233;48.608;8.838;2023-07-22T06:42:37;4.10;;;3.70;;
32292;SDS011;43233;48.608;8.838;2023-07-22T06:45:02;3.83;;;3.20;;
32292;SDS011;43233;48.608;8.838;2023-07-22T06:47:29;5.90;;;3.00;;
32292;SDS011;43233;48.608;8.838;2023-07-22T06:49:55;4.30;;;3.57;;
32292;SDS011;43233;48.608;8.838;2023-07-22T06:52:20;3.53;;;2.97;;
32292;SDS011;43233;48.608;8.838;2023-07-22T06:54:46;3.70;;;3.40;;
32292;SDS011;43233;48.608;8.838;2023-07-22T06:57:12;3.17;;;2.70;;
32292;SDS011;43233;48.608;8.838;2023-07-22T06:59:38;3.37;;;3.07;;
32292;SDS011;43233;48.608;8.838;2023-07-22T07:02:04;3.10;;;2.90;;
32292;SDS011;43233;48.608;8.838;2023-07-22T07:04:30;4.20;;;3.30;;
32292;SDS011;43233;48.608;8.838;2023-07-22T07:06:55;2.93;;;2.73;;
32292;SDS011;43233;48.608;8.838;2023-07-22T07:09:21;3.43;;;3.13;;
32292;SDS011;43233;48.608;8.838;2023-07-22T07:11:47;6.67;;;3.23;;
32292;SDS011;43233;48.608;8.838;2023-07-22T07:14:13;3.50;;;3.17;;
32292;SDS011;43233;48.608;8.838;2023-07-22T07:16:39;4.20;;;2.93;;
32292;SDS011;43233;48.608;8.838;2023-07-22T07:19:04;2.70;;;2.50;;
32292;SDS011;43233;48.608;8.838;2023-07-22T07:21:30;2.57;;;2.37;;
32292;SDS011;43233;48.608;8.838;2023-07-22T07:23:56;3.17;;;2.60;;
32292;SDS011;43233;48.608;8.838;2023-07-22T07:26:22;3.50;;;2.50;;
32292;SDS011;43233;48.608;8.838;2023-07-22T07:28:48;2.50;;;2.40;;
32292;SDS011;43233;48.608;8.838;2023-07-22T07:31:17;2.90;;;2.70;;
32292;SDS011;43233;48.608;8.838;2023-07-22T07:33:43;2.60;;;2.40;;
32292;SDS011;43233;48.608;8.838;2023-07-22T07:36:09;5.03;;;3.20;;
32292;SDS011;43233;48.608;8.838;2023-07-22T07:38:35;5.00;;;2.90;;
32292;SDS011;43233;48.608;8.838;2023-07-22T07:41:02;3.40;;;3.10;;
32292;SDS011;43233;48.608;8.838;2023-07-22T07:43:29;5.27;;;2.67;;
32292;SDS011;43233;48.608;8.838;2023-07-22T07:48:43;4.03;;;2.37;;
32292;SDS011;43233;48.608;8.838;2023-07-22T07:51:11;3.43;;;2.57;;
32292;SDS011;43233;48.608;8.838;2023-07-22T07:53:44;2.67;;;2.47;;
32292;SDS011;43233;48.608;8.838;2023-07-22T07:56:13;2.47;;;1.73;;
32292;SDS011;43233;48.608;8.838;2023-07-22T07:58:40;4.40;;;1.60;;
32292;SDS011;43233;48.608;8.838;2023-07-22T08:01:06;2.20;;;1.90;;
32292;SDS011;43233;48.608;8.838;2023-07-22T08:03:32;3.00;;;1.70;;
32292;SDS011;43233;48.608;8.838;2023-07-22T08:06:00;1.90;;;1.80;;
32292;SDS011;43233;48.608;8.838;2023-07-22T08:08:29;4.00;;;1.70;;
32292;SDS011;43233;48.608;8.838;2023-07-22T08:11:08;12.73;;;2.17;;
32292;SDS011;43233;48.608;8.838;2023-07-22T08:13:37;3.17;;;2.00;;
32292;SDS011;43233;48.608;8.838;2023-07-22T08:16:09;4.30;;;2.17;;
32292;SDS011;43233;48.608;8.838;2023-07-22T08:18:38;2.03;;;1.93;;
32292;SDS011;43233;48.608;8.838;2023-07-22T08:21:04;2.90;;;1.93;;
32292;SDS011;43233;48.608;8.838;2023-07-22T08:23:34;2.20;;;1.60;;
32292;SDS011;43233;48.608;8.838;2023-07-22T08:26:02;1.93;;;1.67;;
32292;SDS011;43233;48.608;8.838;2023-07-22T08:28:30;3.37;;;2.57;;
32292;SDS011;43233;48.608;8.838;2023-07-22T08:30:57;2.63;;;2.33;;
32292;SDS011;43233;48.608;8.838;2023-07-22T08:33:23;1.90;;;1.80;;
32292;SDS011;43233;48.608;8.838;2023-07-22T08:35:50;5.83;;;2.27;;
32292;SDS011;43233;48.608;8.838;2023-07-22T08:38:16;2.80;;;1.90;;
32292;SDS011;43233;48.608;8.838;2023-07-22T08:40:42;2.10;;;1.90;;
32292;SDS011;43233;48.608;8.838;2023-07-22T08:43:09;2.70;;;1.70;;
32292;SDS011;43233;48.608;8.838;2023-07-22T08:45:36;2.00;;;1.90;;
32292;SDS011;43233;48.608;8.838;2023-07-22T08:48:06;3.07;;;1.90;;
32292;SDS011;43233;48.608;8.838;2023-07-22T08:53:20;1.60;;;1.50;;
32292;SDS011;43233;48.608;8.838;2023-07-22T08:55:46;1.83;;;1.73;;
32292;SDS011;43233;48.608;8.838;2023-07-22T08:58:15;1.90;;;1.80;;
32292;SDS011;43233;48.608;8.838;2023-07-22T09:00:42;1.80;;;1.70;;
32292;SDS011;43233;48.608;8.838;2023-07-22T09:03:08;1.60;;;1.50;;
32292;SDS011;43233;48.608;8.838;2023-07-22T09:05:35;1.53;;;1.43;;
32292;SDS011;43233;48.608;8.838;2023-07-22T09:08:02;1.50;;;1.40;;
32292;SDS011;43233;48.608;8.838;2023-07-22T09:10:29;1.80;;;1.70;;
32292;SDS011;43233;48.608;8.838;2023-07-22T09:12:56;3.33;;;1.47;;
32292;SDS011;43233;48.608;8.838;2023-07-22T09:15:23;1.93;;;1.63;;
32292;SDS011;43233;48.608;8.838;2023-07-22T09:17:50;6.40;;;2.00;;
32292;SDS011;43233;48.608;8.838;2023-07-22T09:20:16;1.83;;;1.73;;
32292;SDS011;43233;48.608;8.838;2023-07-22T09:22:48;1.30;;;1.20;;
32292;SDS011;43233;48.608;8.838;2023-07-22T09:27:43;1.50;;;1.40;;
32292;SDS011;43233;48.608;8.838;2023-07-22T09:30:32;6.63;;;1.67;;
32292;SDS011;43233;48.608;8.838;2023-07-22T09:33:00;1.77;;;1.53;;
32292;SDS011;43233;48.608;8.838;2023-07-22T09:35:28;1.60;;;1.50;;
32292;SDS011;43233;48.608;8.838;2023-07-22T09:37:56;2.90;;;1.97;;
32292;SDS011;43233;48.608;8.838;2023-07-22T09:40:23;1.67;;;1.57;;
32292;SDS011;43233;48.608;8.838;2023-07-22T09:42:51;3.47;;;2.03;;
32292;SDS011;43233;48.608;8.838;2023-07-22T09:45:18;1.77;;;1.43;;
32292;SDS011;43233;48.608;8.838;2023-07-22T09:47:46;4.53;;;1.57;;
32292;SDS011;43233;48.608;8.838;2023-07-22T09:50:17;1.97;;;1.40;;
32292;SDS011;43233;48.608;8.838;2023-07-22T09:52:49;1.70;;;1.60;;
32292;SDS011;43233;48.608;8.838;2023-07-22T09:55:19;1.87;;;1.77;;
32292;SDS011;43233;48.608;8.838;2023-07-22T09:57:56;1.83;;;1.73;;
32292;SDS011;43233;48.608;8.838;2023-07-22T10:00:29;1.77;;;1.67;;
32292;SDS011;43233;48.608;8.838;2023-07-22T10:02:57;2.77;;;1.80;;
32292;SDS011;43233;48.608;8.838;2023-07-22T10:05:24;5.23;;;1.73;;
32292;SDS011;43233;48.608;8.838;2023-07-22T10:07:51;2.10;;;1.90;;
32292;SDS011;43233;48.608;8.838;2023-07-22T10:10:19;4.53;;;1.50;;
32292;SDS011;43233;48.608;8.838;2023-07-22T10:13:12;2.00;;;1.70;;
32292;SDS011;43233;48.608;8.838;2023-07-22T10:15:39;2.27;;;1.90;;
32292;SDS011;43233;48.608;8.838;2023-07-22T10:18:05;2.40;;;1.87;;
32292;SDS011;43233;48.608;8.838;2023-07-22T10:20:31;3.20;;;1.60;;
32292;SDS011;43233;48.608;8.838;2023-07-22T10:23:01;7.30;;;1.70;;
32292;SDS011;43233;48.608;8.838;2023-07-22T10:25:29;4.20;;;1.53;;
32292;SDS011;43233;48.608;8.838;2023-07-22T10:27:55;1.70;;;1.60;;
32292;SDS011;43233;48.608;8.838;2023-07-22T10:30:21;2.20;;;2.00;;
32292;SDS011;43233;48.608;8.838;2023-07-22T10:32:48;1.97;;;1.83;;
32292;SDS011;43233;48.608;8.838;2023-07-22T10:38:09;2.80;;;2.20;;
32292;SDS011;43233;48.608;8.838;2023-07-22T10:40:52;1.57;;;1.47;;
32292;SDS011;43233;48.608;8.838;2023-07-22T10:43:23;2.50;;;1.63;;
32292;SDS011;43233;48.608;8.838;2023-07-22T10:45:51;2.07;;;1.63;;
32292;SDS011;43233;48.608;8.838;2023-07-22T10:48:19;2.00;;;1.90;;
32292;SDS011;43233;48.608;8.838;2023-07-22T10:50:49;1.90;;;1.80;;
32292;SDS011;43233;48.608;8.838;2023-07-22T10:53:27;3.30;;;1.80;;
32292;SDS011;43233;48.608;8.838;2023-07-22T11:06:30;2.53;;;1.90;;
32292;SDS011;43233;48.608;8.838;2023-07-22T11:08:56;6.50;;;1.80;;
32292;SDS011;43233;48.608;8.838;2023-07-22T11:11:40;1.70;;;1.60;;
32292;SDS011;43233;48.608;8.838;2023-07-22T11:14:22;1.90;;;1.70;;
32292;SDS011;43233;48.608;8.838;2023-07-22T11:16:49;3.23;;;2.07;;
32292;SDS011;43233;48.608;8.838;2023-07-22T11:19:19;1.70;;;1.60;;
32292;SDS011;43233;48.608;8.838;2023-07-22T11:21:47;1.80;;;1.70;;
32292;SDS011;43233;48.608;8.838;2023-07-22T11:24:15;1.63;;;1.53;;
32292;SDS011;43233;48.608;8.838;2023-07-22T11:26:42;2.27;;;2.07;;
32292;SDS011;43233;48.608;8.838;2023-07-22T11:29:09;1.77;;;1.60;;
32292;SDS011;43233;48.608;8.838;2023-07-22T11:31:36;2.40;;;1.63;;
32292;SDS011;43233;48.608;8.838;2023-07-22T11:34:03;1.87;;;1.77;;
32292;SDS011;43233;48.608;8.838;2023-07-22T11:36:29;2.00;;;1.70;;
32292;SDS011;43233;48.608;8.838;2023-07-22T11:39:29;1.77;;;1.60;;
32292;SDS011;43233;48.608;8.838;2023-07-22T11:41:52;2.50;;;1.83;;
32292;SDS011;43233;48.608;8.838;2023-07-22T11:44:19;2.13;;;1.90;;
32292;SDS011;43233;48.608;8.838;2023-07-22T11:46:49;3.00;;;1.80;;
32292;SDS011;43233;48.608;8.838;2023-07-22T11:49:46;4.03;;;2.33;;
32292;SDS011;43233;48.608;8.838;2023-07-22T11:52:16;4.83;;;1.73;;
32292;SDS011;43233;48.608;8.838;2023-07-22T11:54:43;1.90;;;1.80;;
32292;SDS011;43233;48.608;8.838;2023-07-22T11:57:12;1.83;;;1.70;;
32292;SDS011;43233;48.608;8.838;2023-07-22T11:59:43;2.97;;;1.83;;
32292;SDS011;43233;48.608;8.838;2023-07-22T12:02:14;1.90;;;1.80;;
32292;SDS011;43233;48.608;8.838;2023-07-22T12:04:42;3.03;;;2.07;;
32292;SDS011;43233;48.608;8.838;2023-07-22T12:10:07;1.77;;;1.67;;
32292;SDS011;43233;48.608;8.838;2023-07-22T12:12:45;2.33;;;2.13;;
32292;SDS011;43233;48.608;8.838;2023-07-22T12:15:12;2.20;;;2.00;;
32292;SDS011;43233;48.608;8.838;2023-07-22T12:17:54;2.60;;;1.90;;
32292;SDS011;43233;48.608;8.838;2023-07-22T12:20:27;2.20;;;2.10;;
32292;SDS011;43233;48.608;8.838;2023-07-22T12:22:55;2.60;;;1.73;;
32292;SDS011;43233;48.608;8.838;2023-07-22T12:25:22;5.30;;;2.27;;
32292;SDS011;43233;48.608;8.838;2023-07-22T12:27:48;1.87;;;1.77;;
32292;SDS011;43233;48.608;8.838;2023-07-22T12:30:14;2.23;;;2.03;;
32292;SDS011;43233;48.608;8.838;2023-07-22T12:32:41;2.37;;;2.10;;
32292;SDS011;43233;48.608;8.838;2023-07-22T12:35:07;4.23;;;2.20;;
32292;SDS011;43233;48.608;8.838;2023-07-22T12:37:33;2.67;;;2.47;;
32292;SDS011;43233;48.608;8.838;2023-07-22T12:39:59;2.60;;;2.33;;
32292;SDS011;43233;48.608;8.838;2023-07-22T12:42:26;3.23;;;2.20;;
32292;SDS011;43233;48.608;8.838;2023-07-22T12:44:52;2.00;;;1.90;;
32292;SDS011;43233;48.608;8.838;2023-07-22T12:47:17;2.60;;;2.40;;
32292;SDS011;43233;48.608;8.838;2023-07-22T12:49:43;4.03;;;2.73;;
32292;SDS011;43233;48.608;8.838;2023-07-22T12:52:09;2.50;;;2.13;;
32292;SDS011;43233;48.608;8.838;2023-07-22T12:54:35;2.53;;;2.40;;
32292;SDS011;43233;48.608;8.838;2023-07-22T12:57:01;3.93;;;2.27;;
32292;SDS011;43233;48.608;8.838;2023-07-22T12:59:27;3.80;;;2.90;;
32292;SDS011;43233;48.608;8.838;2023-07-22T13:01:53;2.23;;;2.03;;
32292;SDS011;43233;48.608;8.838;2023-07-22T13:04:18;6.70;;;3.00;;
32292;SDS011;43233;48.608;8.838;2023-07-22T13:06:44;5.83;;;2.77;;
32292;SDS011;43233;48.608;8.838;2023-07-22T13:09:10;3.83;;;2.37;;
32292;SDS011;43233;48.608;8.838;2023-07-22T13:11:36;3.13;;;2.57;;
32292;SDS011;43233;48.608;8.838;2023-07-22T13:14:02;4.33;;;2.07;;
32292;SDS011;43233;48.608;8.838;2023-07-22T13:16:28;4.40;;;1.60;;
32292;SDS011;43233;48.608;8.838;2023-07-22T13:18:54;1.80;;;1.70;;
32292;SDS011;43233;48.608;8.838;2023-07-22T13:21:19;2.80;;;2.37;;
32292;SDS011;43233;48.608;8.838;2023-07-22T13:23:45;2.40;;;2.20;;
32292;SDS011;43233;48.608;8.838;2023-07-22T13:26:11;3.50;;;2.37;;
32292;SDS011;43233;48.608;8.838;2023-07-22T13:28:37;2.60;;;2.33;;
32292;SDS011;43233;48.608;8.838;2023-07-22T13:31:03;5.13;;;2.30;;
32292;SDS011;43233;48.608;8.838;2023-07-22T13:33:28;3.67;;;1.97;;
32292;SDS011;43233;48.608;8.838;2023-07-22T13:35:56;2.37;;;2.17;;
32292;SDS011;43233;48.608;8.838;2023-07-22T13:38:21;2.87;;;2.40;;
32292;SDS011;43233;48.608;8.838;2023-07-22T13:40:47;4.40;;;2.57;;
32292;SDS011;43233;48.608;8.838;2023-07-22T13:43:13;3.87;;;2.10;;
32292;SDS011;43233;48.608;8.838;2023-07-22T13:45:38;2.27;;;2.07;;
32292;SDS011;43233;48.608;8.838;2023-07-22T13:48:04;4.20;;;2.90;;
32292;SDS011;43233;48.608;8.838;2023-07-22T13:50:30;2.10;;;1.90;;
32292;SDS011;43233;48.608;8.838;2023-07-22T13:52:56;2.53;;;2.33;;
32292;SDS011;43233;48.608;8.838;2023-07-22T13:55:21;6.10;;;2.70;;
32292;SDS011;43233;48.608;8.838;2023-07-22T13:57:47;3.70;;;2.77;;
32292;SDS011;43233;48.608;8.838;2023-07-22T14:00:13;3.40;;;2.70;;
32292;SDS011;43233;48.608;8.838;2023-07-22T14:02:39;4.50;;;2.83;;
32292;SDS011;43233;48.608;8.838;2023-07-22T14:05:05;3.90;;;2.53;;
32292;SDS011;43233;48.608;8.838;2023-07-22T14:07:32;3.27;;;2.63;;
32292;SDS011;43233;48.608;8.838;2023-07-22T14:09:58;2.67;;;2.47;;
32292;SDS011;43233;48.608;8.838;2023-07-22T14:12:23;3.67;;;2.70;;
32292;SDS011;43233;48.608;8.838;2023-07-22T14:14:49;2.73;;;2.53;;
32292;SDS011;43233;48.608;8.838;2023-07-22T14:17:15;2.60;;;2.40;;
32292;SDS011;43233;48.608;8.838;2023-07-22T14:19:40;4.23;;;3.30;;
32292;SDS011;43233;48.608;8.838;2023-07-22T14:22:06;4.20;;;2.50;;
32292;SDS011;43233;48.608;8.838;2023-07-22T14:24:33;3.70;;;2.73;;
32292;SDS011;43233;48.608;8.838;2023-07-22T14:26:59;3.03;;;2.63;;
32292;SDS011;43233;48.608;8.838;2023-07-22T14:29:25;3.60;;;2.37;;
32292;SDS011;43233;48.608;8.838;2023-07-22T14:31:50;8.73;;;2.37;;
32292;SDS011;43233;48.608;8.838;2023-07-22T14:34:16;3.10;;;2.57;;
32292;SDS011;43233;48.608;8.838;2023-07-22T14:36:42;2.90;;;2.57;;
32292;SDS011;43233;48.608;8.838;2023-07-22T14:39:09;3.47;;;3.17;;
32292;SDS011;43233;48.608;8.838;2023-07-22T14:41:35;3.20;;;2.90;;
32292;SDS011;43233;48.608;8.838;2023-07-22T14:44:00;2.80;;;2.50;;
32292;SDS011;43233;48.608;8.838;2023-07-22T14:46:26;3.97;;;3.57;;
32292;SDS011;43233;48.608;8.838;2023-07-22T14:48:52;2.83;;;2.63;;
32292;SDS011;43233;48.608;8.838;2023-07-22T14:51:18;2.87;;;2.67;;
32292;SDS011;43233;48.608;8.838;2023-07-22T14:53:44;3.03;;;2.57;;
32292;SDS011;43233;48.608;8.838;2023-07-22T14:56:10;2.77;;;2.57;;
32292;SDS011;43233;48.608;8.838;2023-07-22T14:58:36;2.87;;;2.63;;
32292;SDS011;43233;48.608;8.838;2023-07-22T15:01:02;2.70;;;2.50;;
32292;SDS011;43233;48.608;8.838;2023-07-22T15:03:27;2.67;;;2.43;;
32292;SDS011;43233;48.608;8.838;2023-07-22T15:05:53;3.10;;;2.77;;
32292;SDS011;43233;48.608;8.838;2023-07-22T15:08:19;2.90;;;2.60;;
32292;SDS011;43233;48.608;8.838;2023-07-22T15:10:44;2.50;;;2.30;;
32292;SDS011;43233;48.608;8.838;2023-07-22T15:13:10;5.07;;;2.50;;